Time;durP1;ratioP1;P1;durP2;ratioP2;P2;SDS_P1;SDS_P2;PMS_P1;PMS_P2;Temp;Humidity;BMP_temperature;BMP_pressure;BME280_temperature;BME280_humidity;BME280_pressure;Samples;Min_cycle;Max_cycle;Signal;HPM_P1;HPM_P2
2022/08/18 00:00:18;;;;;;;;;;;;;;;17.59;100.00;-25562.25;5071876;28;19920;-82
2022/08/18 00:02:44;;;;;;;;;;;;;;;17.62;100.00;-25563.13;5071734;28;20387;-75
2022/08/18 00:05:11;;;;;;;;;;;;;;;17.58;100.00;-25562.13;5075714;28;20413;-75
2022/08/18 00:07:37;;;;;;;;;;;;;;;17.49;100.00;-25559.50;5072150;28;20272;-76
2022/08/18 00:10:03;;;;;;;;;;;;;;;17.46;100.00;-25558.50;5071766;28;19916;-76
2022/08/18 00:12:30;;;;;;;;;;;;;;;17.46;100.00;-25558.63;5072418;28;19982;-79
2022/08/18 00:14:56;;;;;;;;;;;;;;;17.45;100.00;-25558.19;5072356;28;19912;-82
2022/08/18 00:17:22;;;;;;;;;;;;;;;17.41;99.12;-25557.19;5072451;28;19928;-82
2022/08/18 00:19:48;;;;;;;;;;;;;;;17.39;93.59;-25556.63;5072972;28;19916;-83
2022/08/18 00:22:16;;;;;;;;;;;;;;;17.37;88.60;-25556.03;5074539;28;19921;-83
2022/08/18 00:24:42;;;;;;;;;;;;;;;17.35;86.03;-25555.44;5093697;28;19920;-83
2022/08/18 00:27:09;;;;;;;;;;;;;;;17.33;84.15;-25555.00;5091372;28;20007;-83
2022/08/18 00:29:34;;;;;;;;;;;;;;;17.34;82.91;-25555.16;5082216;28;19927;-77
2022/08/18 00:32:09;;;;;;;;;;;;;;;17.31;81.17;-25554.44;5085886;28;19921;-76
2022/08/18 00:34:35;;;;;;;;;;;;;;;17.28;79.72;-25553.56;5071594;28;19924;-77
2022/08/18 00:37:00;;;;;;;;;;;;;;;17.27;78.50;-25553.28;5084878;28;19943;-76
2022/08/18 00:39:26;;;;;;;;;;;;;;;17.25;76.66;-25552.56;5084679;28;19920;-76
2022/08/18 00:41:51;;;;;;;;;;;;;;;17.27;75.58;-25553.28;5091465;28;20446;-78
2022/08/18 00:44:16;;;;;;;;;;;;;;;17.28;75.62;-25553.56;5073699;28;19974;-80
2022/08/18 00:46:42;;;;;;;;;;;;;;;17.28;75.61;-25553.44;5091996;28;19998;-75
2022/08/18 00:49:07;;;;;;;;;;;;;;;17.25;75.85;-25552.69;5092496;28;19916;-79
2022/08/18 00:51:36;;;;;;;;;;;;;;;17.26;76.09;-25552.84;5078606;28;19916;-80
2022/08/18 00:54:03;;;;;;;;;;;;;;;17.20;76.48;-25551.41;5083230;28;19920;-82
2022/08/18 00:56:40;;;;;;;;;;;;;;;17.25;76.86;-25552.56;5093867;28;20343;-80
2022/08/18 00:59:08;;;;;;;;;;;;;;;17.23;77.31;-25552.13;5086867;28;19923;-81
2022/08/18 01:01:33;;;;;;;;;;;;;;;17.20;77.61;-25551.41;5078436;28;19917;-81
2022/08/18 01:04:03;;;;;;;;;;;;;;;17.15;77.60;-25549.78;5079720;28;20019;-82
2022/08/18 01:06:38;;;;;;;;;;;;;;;17.14;77.38;-25549.66;5114581;28;19927;-83
2022/08/18 01:09:03;;;;;;;;;;;;;;;17.13;77.26;-25549.38;5094431;28;19924;-80
2022/08/18 01:11:28;;;;;;;;;;;;;;;17.13;77.10;-25549.22;5069843;28;19962;-79
2022/08/18 01:13:56;;;;;;;;;;;;;;;17.14;76.53;-25549.50;5079687;28;20336;-82
2022/08/18 01:21:52;;;;;;;;;;;;;;;17.03;76.40;-25546.59;5085216;28;19973;-82
2022/08/18 01:27:13;;;;;;;;;;;;;;;17.04;76.01;-25546.91;5103106;28;19923;-82
2022/08/18 01:29:39;;;;;;;;;;;;;;;17.04;75.78;-25546.75;5099963;28;19959;-83
2022/08/18 01:32:04;;;;;;;;;;;;;;;17.03;75.85;-25546.47;5094069;28;19974;-81
2022/08/18 01:34:32;;;;;;;;;;;;;;;17.01;75.75;-25545.88;5102458;28;19923;-82
2022/08/18 01:36:57;;;;;;;;;;;;;;;16.99;75.70;-25545.31;5100858;28;19923;-83
2022/08/18 01:39:22;;;;;;;;;;;;;;;16.99;75.68;-25545.31;5089382;28;19924;-82
2022/08/18 01:41:48;;;;;;;;;;;;;;;16.95;75.62;-25544.16;5091296;28;19991;-83
2022/08/18 01:44:16;;;;;;;;;;;;;;;16.96;75.54;-25544.44;5094115;28;20506;-80
2022/08/18 01:46:41;;;;;;;;;;;;;;;16.97;75.58;-25544.72;5093434;28;19920;-81
2022/08/18 01:49:09;;;;;;;;;;;;;;;16.92;75.73;-25543.28;5072465;28;19932;-83
2022/08/18 01:51:36;;;;;;;;;;;;;;;16.93;75.73;-25543.72;5089421;28;19917;-83
2022/08/18 01:54:02;;;;;;;;;;;;;;;16.90;75.88;-25542.69;5093694;28;19927;-83
2022/08/18 01:56:27;;;;;;;;;;;;;;;16.90;75.81;-25542.84;5088073;28;19921;-81
2022/08/18 01:58:53;;;;;;;;;;;;;;;16.85;75.71;-25541.53;5079993;28;19970;-77
2022/08/18 02:01:19;;;;;;;;;;;;;;;16.86;75.33;-25541.81;5085674;28;19920;-78
2022/08/18 02:03:48;;;;;;;;;;;;;;;16.87;75.13;-25541.97;5097834;28;19974;-79
2022/08/18 02:06:17;;;;;;;;;;;;;;;16.85;75.22;-25541.53;5098329;28;19927;-79
2022/08/18 02:08:43;;;;;;;;;;;;;;;16.82;75.24;-25540.66;5096289;28;19934;-77
2022/08/18 02:11:08;;;;;;;;;;;;;;;16.79;75.32;-25539.63;5077164;28;19924;-76
2022/08/18 02:13:33;;;;;;;;;;;;;;;16.78;74.99;-25539.50;5073419;28;19917;-77
2022/08/18 02:15:59;;;;;;;;;;;;;;;16.78;74.72;-25539.50;5090602;28;19947;-78
2022/08/18 02:18:27;;;;;;;;;;;;;;;16.73;74.44;-25537.91;5080255;28;19916;-79
2022/08/18 02:20:53;;;;;;;;;;;;;;;16.75;74.15;-25538.63;5085235;28;19926;-77
2022/08/18 02:23:20;;;;;;;;;;;;;;;16.76;73.99;-25538.78;5094783;28;19976;-76
2022/08/18 02:25:45;;;;;;;;;;;;;;;16.74;73.72;-25538.19;5095891;28;20091;-78
2022/08/18 02:28:10;;;;;;;;;;;;;;;16.77;73.37;-25539.22;5077706;28;19916;-78
2022/08/18 02:30:37;;;;;;;;;;;;;;;16.77;73.18;-25539.22;5085207;28;19920;-77
2022/08/18 02:33:03;;;;;;;;;;;;;;;16.77;72.97;-25539.06;5094278;28;19951;-78
2022/08/18 02:35:30;;;;;;;;;;;;;;;16.72;72.74;-25537.75;5094552;28;19963;-78
2022/08/18 02:37:59;;;;;;;;;;;;;;;16.73;72.23;-25538.03;5094686;28;19939;-77
2022/08/18 02:40:24;;;;;;;;;;;;;;;16.72;72.09;-25537.75;5095051;28;19920;-78
2022/08/18 02:42:54;;;;;;;;;;;;;;;16.72;71.82;-25537.75;5095266;28;19916;-78
2022/08/18 02:45:20;;;;;;;;;;;;;;;16.71;71.67;-25537.47;5095877;28;19920;-79
2022/08/18 02:47:50;;;;;;;;;;;;;;;16.69;71.65;-25537.03;5094692;28;19916;-77
2022/08/18 02:50:15;;;;;;;;;;;;;;;16.69;71.56;-25536.88;5078462;28;19916;-81
2022/08/18 02:52:42;;;;;;;;;;;;;;;16.65;71.53;-25535.88;5088932;28;20284;-77
2022/08/18 02:55:08;;;;;;;;;;;;;;;16.66;71.45;-25536.00;5074307;28;20011;-77
2022/08/18 02:57:33;;;;;;;;;;;;;;;16.64;71.42;-25535.44;5082384;28;19963;-77
2022/08/18 02:59:59;;;;;;;;;;;;;;;16.65;71.59;-25535.72;5082563;28;20431;-76
2022/08/18 03:02:24;;;;;;;;;;;;;;;16.63;71.42;-25535.16;5073935;28;19921;-76
2022/08/18 03:04:51;;;;;;;;;;;;;;;16.63;71.31;-25535.16;5073251;28;19936;-77
2022/08/18 03:07:17;;;;;;;;;;;;;;;16.60;71.27;-25534.41;5093275;28;19924;-77
2022/08/18 03:09:42;;;;;;;;;;;;;;;16.59;71.22;-25533.97;5090941;28;19920;-81
2022/08/18 03:12:08;;;;;;;;;;;;;;;16.57;71.15;-25533.53;5089006;28;19927;-82
2022/08/18 03:14:34;;;;;;;;;;;;;;;16.52;71.15;-25532.09;5079606;28;20010;-80
2022/08/18 03:17:02;;;;;;;;;;;;;;;16.48;71.06;-25531.09;5094704;28;20351;-82
2022/08/18 03:19:28;;;;;;;;;;;;;;;16.48;70.99;-25530.94;5090959;28;19916;-82
2022/08/18 03:21:54;;;;;;;;;;;;;;;16.46;70.81;-25530.50;5080593;28;19916;-79
2022/08/18 03:24:20;;;;;;;;;;;;;;;16.45;70.75;-25530.06;5093541;28;20328;-83
2022/08/18 03:26:46;;;;;;;;;;;;;;;16.46;70.62;-25530.34;5073999;28;19917;-77
2022/08/18 03:29:12;;;;;;;;;;;;;;;16.48;70.47;-25531.09;5074082;28;20392;-78
2022/08/18 03:31:37;;;;;;;;;;;;;;;16.50;70.20;-25531.66;5074279;28;19924;-77
2022/08/18 03:34:04;;;;;;;;;;;;;;;16.49;70.02;-25531.38;5083310;28;19951;-77
2022/08/18 03:36:33;;;;;;;;;;;;;;;16.47;69.94;-25530.66;5090793;28;19924;-77
2022/08/18 03:39:06;;;;;;;;;;;;;;;16.45;69.79;-25530.22;5077213;28;19924;-76
2022/08/18 03:41:31;;;;;;;;;;;;;;;16.48;69.67;-25531.09;5079653;28;19927;-79
2022/08/18 03:43:59;;;;;;;;;;;;;;;16.44;69.55;-25529.78;5073298;28;20283;-78
2022/08/18 03:46:24;;;;;;;;;;;;;;;16.45;69.49;-25530.06;5090433;28;20449;-77
2022/08/18 03:48:52;;;;;;;;;;;;;;;16.56;69.29;-25533.25;5079506;28;19924;-77
2022/08/18 03:51:28;;;;;;;;;;;;;;;16.66;69.03;-25536.00;5093932;28;19939;-78
2022/08/18 03:53:55;;;;;;;;;;;;;;;16.72;68.73;-25537.75;5089759;28;20391;-78
2022/08/18 03:56:22;;;;;;;;;;;;;;;16.80;68.44;-25539.94;5086622;28;20528;-80
2022/08/18 03:58:50;;;;;;;;;;;;;;;16.75;68.27;-25538.63;5095133;28;19923;-81
2022/08/18 04:01:16;;;;;;;;;;;;;;;16.69;68.22;-25536.88;5090934;28;19958;-81
2022/08/18 04:03:44;;;;;;;;;;;;;;;16.63;68.21;-25535.28;5079458;28;19920;-80
2022/08/18 04:06:23;;;;;;;;;;;;;;;16.64;68.14;-25535.59;5085513;28;19944;-77
2022/08/18 04:08:52;;;;;;;;;;;;;;;16.66;68.04;-25536.00;5094311;28;19945;-81
2022/08/18 04:11:18;;;;;;;;;;;;;;;16.68;67.91;-25536.59;5083838;28;19920;-82
2022/08/18 04:13:43;;;;;;;;;;;;;;;16.69;67.70;-25537.03;5078755;28;20433;-80
2022/08/18 04:16:09;;;;;;;;;;;;;;;16.67;67.56;-25536.44;5097109;28;19923;-81
2022/08/18 04:18:36;;;;;;;;;;;;;;;16.64;67.49;-25535.44;5087808;28;20364;-82
2022/08/18 04:21:06;;;;;;;;;;;;;;;16.63;67.41;-25535.16;5075718;28;19916;-82
2022/08/18 04:23:36;;;;;;;;;;;;;;;16.73;67.27;-25538.03;5081846;28;19916;-83
2022/08/18 04:26:02;;;;;;;;;;;;;;;16.75;67.07;-25538.63;5088124;28;19927;-84
2022/08/18 04:28:28;;;;;;;;;;;;;;;16.71;66.90;-25537.47;5087786;28;19916;-83
2022/08/18 04:30:53;;;;;;;;;;;;;;;16.67;66.78;-25536.44;5074702;28;20387;-78
2022/08/18 04:33:19;;;;;;;;;;;;;;;16.68;66.64;-25536.75;5073203;28;20288;-77
2022/08/18 04:35:45;;;;;;;;;;;;;;;16.76;66.47;-25538.91;5071753;28;19920;-78
2022/08/18 04:38:11;;;;;;;;;;;;;;;16.80;66.30;-25540.06;5087689;28;19934;-75
2022/08/18 04:40:36;;;;;;;;;;;;;;;16.81;66.20;-25540.22;5096555;28;19924;-78
2022/08/18 04:43:02;;;;;;;;;;;;;;;16.83;66.10;-25540.94;5064993;28;19927;-77
2022/08/18 04:45:29;;;;;;;;;;;;;;;16.80;66.06;-25540.06;5081775;28;19949;-83
2022/08/18 04:47:56;;;;;;;;;;;;;;;16.84;65.98;-25541.25;5091945;28;19951;-77
2022/08/18 04:50:23;;;;;;;;;;;;;;;16.85;65.94;-25541.53;5086316;28;19920;-83
2022/08/18 04:55:32;;;;;;;;;;;;;;;16.99;65.82;-25545.44;5093649;28;20426;-78
2022/08/18 04:57:58;;;;;;;;;;;;;;;17.03;65.81;-25546.47;5091910;28;19928;-79
2022/08/18 05:00:23;;;;;;;;;;;;;;;16.94;65.80;-25544.00;5092104;28;19917;-80
2022/08/18 05:02:53;;;;;;;;;;;;;;;17.06;65.79;-25547.34;5082501;28;19916;-79
2022/08/18 05:05:18;;;;;;;;;;;;;;;17.26;65.75;-25553.00;5083138;28;19928;-80
2022/08/18 05:07:44;;;;;;;;;;;;;;;17.45;65.68;-25558.19;5091336;28;19916;-83
2022/08/18 05:10:11;;;;;;;;;;;;;;;17.39;65.70;-25556.75;5071355;28;20355;-84
2022/08/18 05:12:42;;;;;;;;;;;;;;;17.18;65.74;-25550.81;5071821;28;20318;-77
2022/08/18 05:15:08;;;;;;;;;;;;;;;17.01;65.80;-25545.88;5072455;28;19964;-83
2022/08/18 05:17:38;;;;;;;;;;;;;;;17.00;65.79;-25545.59;5071975;28;19917;-79
2022/08/18 05:20:03;;;;;;;;;;;;;;;17.14;65.74;-25549.66;5088530;28;19935;-83
2022/08/18 05:22:35;;;;;;;;;;;;;;;17.36;65.71;-25555.75;5086106;28;19935;-84
2022/08/18 05:25:01;;;;;;;;;;;;;;;17.80;65.66;-25568.06;5091322;28;19935;-82
2022/08/18 05:27:31;;;;;;;;;;;;;;;18.15;65.64;-25578.06;5091725;28;19924;-81
2022/08/18 05:29:57;;;;;;;;;;;;;;;18.09;65.67;-25576.47;5076487;28;19935;-81
2022/08/18 05:32:22;;;;;;;;;;;;;;;18.23;65.71;-25580.22;5086163;28;19924;-78
2022/08/18 05:34:48;;;;;;;;;;;;;;;18.28;65.78;-25581.81;5082616;28;19970;-80
2022/08/18 05:37:37;;;;;;;;;;;;;;;18.60;65.83;-25590.63;5072960;28;20783;-82
2022/08/18 05:40:05;;;;;;;;;;;;;;;19.06;65.97;-25603.50;5070795;28;19921;-80
2022/08/18 05:42:39;;;;;;;;;;;;;;;19.79;66.11;-25624.00;5071263;28;19920;-84
2022/08/18 05:45:10;;;;;;;;;;;;;;;21.07;66.91;-25659.91;5079443;28;19939;-80
2022/08/18 05:47:35;;;;;;;;;;;;;;;21.78;75.18;-25679.75;5094371;28;19923;-79
2022/08/18 05:50:05;;;;;;;;;;;;;;;22.66;82.35;-25704.31;5086249;28;19939;-85
2022/08/18 05:52:37;;;;;;;;;;;;;;;22.98;100.00;-25713.19;5075588;28;19943;-83
2022/08/18 05:58:00;;;;;;;;;;;;;;;23.81;100.00;-25736.41;5086007;28;20388;-83
2022/08/18 06:00:27;;;;;;;;;;;;;;;24.36;100.00;-25751.88;5075304;28;19925;-82
2022/08/18 06:03:00;;;;;;;;;;;;;;;24.60;100.00;-25758.31;5079839;28;19928;-81
2022/08/18 06:05:33;;;;;;;;;;;;;;;23.61;100.00;-23396.44;5089358;28;19917;-82
2022/08/18 06:08:08;;;;;;;;;;;;;;;23.04;100.00;-16716.06;5075751;28;19943;-84
2022/08/18 06:10:36;;;;;;;;;;;;;;;22.89;100.00;-17714.56;5077732;28;19920;-79
2022/08/18 06:13:07;;;;;;;;;;;;;;;22.92;100.00;-17715.03;5081805;28;20361;-82
2022/08/18 06:15:45;;;;;;;;;;;;;;;22.93;100.00;-17381.72;5075281;28;19916;-84
2022/08/18 06:18:20;;;;;;;;;;;;;;;22.72;100.00;-17045.09;5075428;28;19916;-80
2022/08/18 06:20:49;;;;;;;;;;;;;;;22.22;100.00;-21699.25;5078808;28;19927;-77
2022/08/18 06:23:18;;;;;;;;;;;;;;;21.76;100.00;-25679.16;5084059;28;19927;-76
2022/08/18 06:25:44;;;;;;;;;;;;;;;21.70;100.00;-25677.59;5073523;28;19970;-77
2022/08/18 06:28:13;;;;;;;;;;;;;;;21.61;100.00;-25675.16;5107305;28;19917;-77
2022/08/18 06:31:10;;;;;;;;;;;;;;;21.45;100.00;-25670.69;5073568;28;19916;-76
2022/08/18 06:33:42;;;;;;;;;;;;;;;21.35;100.00;-25667.81;5050960;28;19977;-83
2022/08/18 06:36:13;;;;;;;;;;;;;;;21.04;100.00;-25659.19;5073165;28;19916;-80
2022/08/18 06:38:38;;;;;;;;;;;;;;;21.07;100.00;-25660.03;5073326;28;19921;-79
2022/08/18 06:41:09;;;;;;;;;;;;;;;21.19;100.00;-25663.22;5073454;28;19924;-78
2022/08/18 06:43:38;;;;;;;;;;;;;;;21.22;100.00;-25664.22;5073523;28;19917;-81
2022/08/18 06:46:17;;;;;;;;;;;;;;;22.12;100.00;-25689.38;5073564;28;19921;-86
2022/08/18 06:48:47;;;;;;;;;;;;;;;23.15;100.00;-25718.09;5107816;28;19939;-85
2022/08/18 06:51:13;;;;;;;;;;;;;;;23.01;100.00;-25714.19;5107120;28;20299;-83
2022/08/18 06:53:56;;;;;;;;;;;;;;;22.57;100.00;-25701.88;5108099;28;19921;-86
2022/08/18 06:56:21;;;;;;;;;;;;;;;22.48;100.00;-25699.44;5109443;28;19917;-85
2022/08/18 06:58:46;;;;;;;;;;;;;;;22.56;100.00;-25701.59;5108073;27;19941;-85
2022/08/18 07:01:12;;;;;;;;;;;;;;;22.38;100.00;-25696.56;5074738;28;19917;-83
2022/08/18 07:04:04;;;;;;;;;;;;;;;22.34;100.00;-25695.56;5094008;28;20394;-84
2022/08/18 07:06:30;;;;;;;;;;;;;;;22.51;100.00;-25700.16;5070454;28;19924;-78
2022/08/18 07:09:15;;;;;;;;;;;;;;;23.05;100.00;-25715.34;5071685;28;19962;-74
2022/08/18 07:11:56;;;;;;;;;;;;;;;24.04;100.00;-25742.84;5105927;28;19920;-76
2022/08/18 07:14:22;;;;;;;;;;;;;;;25.01;100.00;-20088.13;5072774;28;20065;-77
2022/08/18 07:16:48;;;;;;;;;;;;;;;26.34;100.00;-4670.34;5071744;28;19928;-76
2022/08/18 07:19:15;;;;;;;;;;;;;;;26.87;100.00;21682.69;5105679;28;20371;-77
2022/08/18 07:21:42;;;;;;;;;;;;;;;27.26;100.00;69817.72;5105435;28;20455;-77
2022/08/18 07:24:26;;;;;;;;;;;;;;;27.41;100.00;115425.91;5105647;28;19960;-78
2022/08/18 07:27:00;;;;;;;;;;;;;;;26.98;100.00;149494.47;5105322;28;19916;-75
2022/08/18 07:29:26;;;;;;;;;;;;;;;27.21;100.00;149553.66;5105488;28;19916;-82
2022/08/18 07:31:52;;;;;;;;;;;;;;;27.53;100.00;149632.19;5105593;28;19932;-76
2022/08/18 07:34:39;;;;;;;;;;;;;;;27.82;100.00;149704.28;5104625;28;19927;-76
2022/08/18 07:37:23;;;;;;;;;;;;;;;26.12;100.00;149280.91;5071660;28;19947;-77
2022/08/18 07:39:53;;;;;;;;;;;;;;;25.42;100.00;149104.75;5105723;28;20364;-76
2022/08/18 07:42:39;;;;;;;;;;;;;;;25.16;100.00;141372.22;5072321;28;20065;-77
2022/08/18 07:45:16;;;;;;;;;;;;;;;24.86;100.00;148965.88;5103978;28;19927;-83
2022/08/18 07:47:48;;;;;;;;;;;;;;;24.14;100.00;122397.09;5106639;28;19912;-78
2022/08/18 07:50:14;;;;;;;;;;;;;;;23.21;100.00;109091.69;5079226;28;19920;-84
2022/08/18 07:52:47;;;;;;;;;;;;;;;23.13;100.00;84349.84;5092087;28;19916;-79
2022/08/18 07:55:16;;;;;;;;;;;;;;;22.58;100.00;70951.41;5092032;28;20320;-81
2022/08/18 07:57:41;;;;;;;;;;;;;;;22.37;100.00;56295.97;5075791;28;20426;-80
2022/08/18 08:00:11;;;;;;;;;;;;;;;22.47;100.00;40713.84;5072874;28;19921;-80
2022/08/18 08:02:46;;;;;;;;;;;;;;;22.35;100.00;22146.66;5072360;28;20402;-82
2022/08/18 08:05:19;;;;;;;;;;;;;;;22.87;100.00;1339.00;5072429;28;19916;-78
2022/08/18 08:07:44;;;;;;;;;;;;;;;23.01;100.00;-5021.94;5072731;28;19924;-82
2022/08/18 08:10:10;;;;;;;;;;;;;;;22.73;100.00;1672.03;5106947;28;19924;-84
2022/08/18 08:12:39;;;;;;;;;;;;;;;23.03;100.00;4694.56;5106322;28;19916;-80
2022/08/18 08:15:10;;;;;;;;;;;;;;;24.02;100.00;1691.44;5105593;28;19917;-79
2022/08/18 08:17:42;;;;;;;;;;;;;;;25.04;100.00;10796.75;5104482;28;19916;-80
2022/08/18 08:20:13;;;;;;;;;;;;;;;24.92;100.00;56895.69;5070567;28;20349;-81
2022/08/18 08:22:47;;;;;;;;;;;;;;;25.22;100.00;135817.34;5104627;28;20396;-82
2022/08/18 08:25:30;;;;;;;;;;;;;;;25.70;100.00;118904.56;5070292;28;19917;-82
2022/08/18 08:28:14;;;;;;;;;;;;;;;25.94;100.00;149234.56;5071016;28;20438;-78
2022/08/18 08:30:45;;;;;;;;;;;;;;;26.10;100.00;149275.78;5070371;28;19916;-80
2022/08/18 08:33:22;;;;;;;;;;;;;;;26.13;100.00;149282.16;5069909;28;20361;-79
2022/08/18 08:35:49;;;;;;;;;;;;;;;26.64;100.00;149409.50;5070292;28;19916;-83
2022/08/18 08:38:18;;;;;;;;;;;;;;;26.68;100.00;149419.84;5071214;28;19974;-80
2022/08/18 08:40:53;;;;;;;;;;;;;;;26.61;100.00;149401.78;5069905;28;19917;-82
2022/08/18 08:43:24;;;;;;;;;;;;;;;26.78;100.00;149445.56;5070284;28;19987;-82
2022/08/18 08:46:21;;;;;;;;;;;;;;;25.86;100.00;149215.25;5070669;28;19993;-83
2022/08/18 08:48:50;;;;;;;;;;;;;;;26.35;100.00;149337.44;5048183;28;19970;-82
2022/08/18 08:51:19;;;;;;;;;;;;;;;26.26;100.00;149315.63;5070574;28;20371;-81
2022/08/18 08:53:48;;;;;;;;;;;;;;;25.00;100.00;149000.59;5104541;28;19916;-79
2022/08/18 08:56:15;;;;;;;;;;;;;;;25.01;100.00;149003.13;5075769;28;19932;-81
2022/08/18 08:58:48;;;;;;;;;;;;;;;24.31;100.00;148828.34;5084357;28;19927;-80
2022/08/18 09:01:28;;;;;;;;;;;;;;;23.94;100.00;148735.91;5073810;28;19947;-81
2022/08/18 09:04:06;;;;;;;;;;;;;;;23.74;100.00;148684.47;5070461;28;20270;-80
2022/08/18 09:06:51;;;;;;;;;;;;;;;23.79;100.00;148697.34;5105307;28;19917;-83
2022/08/18 09:09:25;;;;;;;;;;;;;;;24.25;100.00;148811.66;5083810;28;19916;-79
2022/08/18 09:11:54;;;;;;;;;;;;;;;24.20;100.00;148800.09;5084734;28;19916;-77
2022/08/18 09:14:25;;;;;;;;;;;;;;;24.98;100.00;148995.41;5080924;28;19925;-80
2022/08/18 09:17:10;;;;;;;;;;;;;;;25.89;100.00;149221.72;5112318;28;20023;-80
2022/08/18 09:19:38;;;;;;;;;;;;;;;25.74;100.00;149185.69;5104114;28;19924;-83
2022/08/18 09:22:09;;;;;;;;;;;;;;;24.78;100.00;148945.34;5105536;28;19916;-83
2022/08/18 09:24:40;;;;;;;;;;;;;;;24.38;100.00;148846.34;5074621;28;19924;-83
2022/08/18 09:27:14;;;;;;;;;;;;;;;24.34;100.00;148834.78;5074452;28;19985;-82
2022/08/18 09:29:53;;;;;;;;;;;;;;;24.11;100.00;148777.00;5108039;28;19963;-83
2022/08/18 09:32:21;;;;;;;;;;;;;;;23.81;100.00;148702.47;5074086;28;19924;-82
2022/08/18 09:35:05;;;;;;;;;;;;;;;23.89;100.00;148723.06;5108323;28;19951;-82
2022/08/18 09:43:36;;;;;;;;;;;;;;;23.50;100.00;148624.16;5075591;28;19924;-82
2022/08/18 09:46:04;;;;;;;;;;;;;;;23.52;100.00;148629.28;5073951;28;19952;-81
2022/08/18 09:48:34;;;;;;;;;;;;;;;23.61;100.00;148652.38;5073974;28;19923;-76
2022/08/18 09:51:09;;;;;;;;;;;;;;;24.16;100.00;148789.81;5072332;28;20220;-80
2022/08/18 09:53:47;;;;;;;;;;;;;;;24.47;100.00;148866.88;5106944;28;19924;-79
2022/08/18 09:56:13;;;;;;;;;;;;;;;24.73;100.00;148933.78;5106613;28;19923;-80
2022/08/18 09:58:51;;;;;;;;;;;;;;;24.26;100.00;148815.53;5073768;28;19916;-81
2022/08/18 10:01:29;;;;;;;;;;;;;;;23.89;100.00;148721.78;5073657;28;19922;-82
2022/08/18 10:04:12;;;;;;;;;;;;;;;23.77;100.00;148693.50;5106919;28;19927;-79
2022/08/18 10:06:38;;;;;;;;;;;;;;;23.82;100.00;148705.06;5107776;28;19967;-83
2022/08/18 10:09:23;;;;;;;;;;;;;;;23.79;100.00;133756.97;5073099;28;19963;-79
2022/08/18 10:11:56;;;;;;;;;;;;;;;23.74;100.00;120237.97;5107252;28;19928;-78
2022/08/18 10:14:57;;;;;;;;;;;;;;;23.65;100.00;110553.13;5072889;28;19959;-81
2022/08/18 10:17:36;;;;;;;;;;;;;;;23.53;100.00;108461.56;5035323;28;19917;-79
2022/08/18 10:20:17;;;;;;;;;;;;;;;23.71;100.00;100229.53;5068237;28;19923;-82
2022/08/18 10:22:46;;;;;;;;;;;;;;;23.97;100.00;99930.38;5073237;28;19916;-81
2022/08/18 10:25:13;;;;;;;;;;;;;;;23.86;100.00;116805.47;5072333;28;19917;-79
2022/08/18 10:27:44;;;;;;;;;;;;;;;23.73;100.00;125080.19;5072949;28;19917;-78
2022/08/18 10:30:36;;;;;;;;;;;;;;;23.76;100.00;120243.22;5106550;28;19923;-75
2022/08/18 10:33:03;;;;;;;;;;;;;;;23.92;100.00;110948.47;5101014;28;19917;-76
2022/08/18 10:35:37;;;;;;;;;;;;;;;24.05;100.00;131385.16;5074126;28;19917;-78
2022/08/18 10:38:12;;;;;;;;;;;;;;;24.05;100.00;120992.75;5106638;28;19927;-77
2022/08/18 10:40:39;;;;;;;;;;;;;;;23.71;100.00;148678.09;5077464;28;19925;-81
2022/08/18 10:43:11;;;;;;;;;;;;;;;23.47;100.00;148617.72;5073911;28;20296;-79
2022/08/18 10:45:44;;;;;;;;;;;;;;;23.42;100.00;148604.91;5073448;28;19923;-84
2022/08/18 10:48:19;;;;;;;;;;;;;;;23.82;100.00;141797.28;5081816;28;20351;-86
2022/08/18 10:50:53;;;;;;;;;;;;;;;24.03;100.00;148757.72;5107977;28;19917;-79
2022/08/18 10:53:39;;;;;;;;;;;;;;;23.85;100.00;148712.81;5074062;28;19931;-79
2022/08/18 10:56:24;;;;;;;;;;;;;;;24.20;100.00;148800.09;5108038;28;19916;-82
2022/08/18 10:58:55;;;;;;;;;;;;;;;24.64;100.00;148909.34;5107803;28;19929;-83
2022/08/18 11:01:53;;;;;;;;;;;;;;;24.60;100.00;148900.34;5073066;28;20082;-77
2022/08/18 11:04:30;;;;;;;;;;;;;;;25.11;100.00;149026.25;5061543;28;19916;-82
2022/08/18 11:07:02;;;;;;;;;;;;;;;25.39;100.00;149097.03;5106797;28;19949;-79
2022/08/18 11:09:30;;;;;;;;;;;;;;;25.29;100.00;149072.56;5073843;28;20015;-82
2022/08/18 11:11:57;;;;;;;;;;;;;;;25.69;100.00;149171.56;5073791;28;19920;-82
2022/08/18 11:14:23;;;;;;;;;;;;;;;25.84;100.00;149210.13;5073183;28;19924;-79
2022/08/18 11:17:07;;;;;;;;;;;;;;;26.07;100.00;149268.06;5073702;28;19920;-80
2022/08/18 11:19:40;;;;;;;;;;;;;;;26.07;100.00;149266.72;5072786;28;19917;-82
2022/08/18 11:22:19;;;;;;;;;;;;;;;25.83;100.00;149207.56;5071641;28;19920;-78
2022/08/18 11:24:44;;;;;;;;;;;;;;;24.90;100.00;148976.13;5072827;28;19916;-81
2022/08/18 11:27:17;;;;;;;;;;;;;;;24.42;100.00;148855.31;5072762;28;19917;-82
2022/08/18 11:29:43;;;;;;;;;;;;;;;24.40;100.00;148850.19;5072923;28;19928;-83
2022/08/18 11:32:23;;;;;;;;;;;;;;;24.45;100.00;148861.75;5072293;28;20352;-83
2022/08/18 11:34:58;;;;;;;;;;;;;;;24.99;100.00;148998.00;5072512;28;20349;-82
2022/08/18 11:37:25;;;;;;;;;;;;;;;25.23;100.00;149058.41;5072914;28;19924;-79
2022/08/18 11:39:53;;;;;;;;;;;;;;;25.35;100.00;149088.00;5075993;28;19916;-82
2022/08/18 11:42:24;;;;;;;;;;;;;;;25.29;100.00;149071.31;5075782;28;19916;-77
2022/08/18 11:44:52;;;;;;;;;;;;;;;25.51;100.00;149126.56;5075410;28;19916;-78
2022/08/18 11:47:20;;;;;;;;;;;;;;;25.75;100.00;149188.25;5075190;28;19916;-83
2022/08/18 11:49:51;;;;;;;;;;;;;;;25.59;100.00;149147.13;5094495;28;19920;-83
2022/08/18 11:52:22;;;;;;;;;;;;;;;25.89;100.00;149221.72;5056015;28;20015;-82
2022/08/18 11:54:48;;;;;;;;;;;;;;;25.94;100.00;149234.56;5056452;28;19917;-82
2022/08/18 11:57:29;;;;;;;;;;;;;;;25.59;100.00;149148.44;5056183;28;19916;-83
2022/08/18 11:59:55;;;;;;;;;;;;;;;25.72;100.00;149180.56;5056116;28;19932;-80
2022/08/18 12:02:24;;;;;;;;;;;;;;;25.91;100.00;149228.09;5056291;28;19916;-82
2022/08/18 12:05:01;;;;;;;;;;;;;;;26.08;100.00;149269.31;5056336;28;19920;-82
2022/08/18 12:07:32;;;;;;;;;;;;;;;25.93;100.00;149233.28;5056318;28;20336;-81
2022/08/18 12:10:16;;;;;;;;;;;;;;;25.74;100.00;149185.69;5055734;28;20015;-82
2022/08/18 12:12:47;;;;;;;;;;;;;;;25.48;100.00;149120.16;5055680;28;19916;-80
2022/08/18 12:15:12;;;;;;;;;;;;;;;25.34;100.00;149085.47;5044331;28;19924;-82
2022/08/18 12:17:40;;;;;;;;;;;;;;;25.64;100.00;149160.00;5049405;28;20336;-81
2022/08/18 12:20:07;;;;;;;;;;;;;;;25.26;100.00;149066.13;5035149;28;19962;-83
2022/08/18 12:22:41;;;;;;;;;;;;;;;25.24;100.00;149059.69;5035046;28;20450;-80
2022/08/18 12:25:09;;;;;;;;;;;;;;;24.80;100.00;148949.19;5033494;28;19971;-77
2022/08/18 12:27:34;;;;;;;;;;;;;;;24.49;100.00;148873.31;5033518;28;19971;-80
2022/08/18 12:30:00;;;;;;;;;;;;;;;24.75;100.00;148936.31;5034084;28;19959;-78
2022/08/18 12:32:28;;;;;;;;;;;;;;;24.93;100.00;148981.31;5053892;28;20365;-79
2022/08/18 12:34:53;;;;;;;;;;;;;;;25.33;100.00;149082.88;5054917;28;19993;-78
2022/08/18 12:37:23;;;;;;;;;;;;;;;25.69;100.00;149171.56;5053034;28;19975;-81
2022/08/18 12:39:50;;;;;;;;;;;;;;;25.82;100.00;149204.97;5054595;28;20543;-78
2022/08/18 12:42:18;;;;;;;;;;;;;;;26.02;100.00;149255.16;5053902;28;19917;-83
2022/08/18 12:44:46;;;;;;;;;;;;;;;26.33;100.00;149333.66;5058340;28;20772;-82
2022/08/18 12:47:15;;;;;;;;;;;;;;;26.62;100.00;149404.38;5054450;28;19978;-77
2022/08/18 12:49:41;;;;;;;;;;;;;;;26.75;100.00;149437.84;5087828;28;19920;-76
2022/08/18 12:52:06;;;;;;;;;;;;;;;26.47;100.00;149367.06;5071991;28;20011;-77
2022/08/18 12:54:33;;;;;;;;;;;;;;;26.59;100.00;149397.94;5058138;28;19923;-82
2022/08/18 12:56:58;;;;;;;;;;;;;;;25.69;100.00;149172.84;5064037;28;19927;-77
2022/08/18 12:59:24;;;;;;;;;;;;;;;25.35;100.00;149086.72;5053386;28;19920;-75
2022/08/18 13:01:50;;;;;;;;;;;;;;;24.79;100.00;148946.59;5054018;28;20015;-78
2022/08/18 13:04:15;;;;;;;;;;;;;;;24.84;100.00;148960.72;5054029;28;19999;-80